createdAt,value
2018-07-14T00:00:54.052Z,95.60
2018-07-14T00:03:21.759Z,95.40
2018-07-14T00:05:49.763Z,95.70
2018-07-14T00:08:17.667Z,95.90
2018-07-14T00:10:45.379Z,96.40
2018-07-14T00:13:13.045Z,96.40
2018-07-14T00:15:40.697Z,96.40
2018-07-14T00:18:08.741Z,96.60
2018-07-14T00:20:36.385Z,97.00
2018-07-14T00:23:04.104Z,96.80
2018-07-14T00:25:37.701Z,95.80
2018-07-14T00:28:05.399Z,96.30
2018-07-14T00:30:33.262Z,96.70
2018-07-14T00:33:01.087Z,96.80
2018-07-14T00:35:28.899Z,96.80
2018-07-14T00:37:56.689Z,97.10
2018-07-14T00:40:24.421Z,97.60
2018-07-14T00:42:52.218Z,97.50
2018-07-14T00:45:20.167Z,97.20
2018-07-14T00:47:48.000Z,97.50
2018-07-14T00:50:15.831Z,97.50
2018-07-14T00:52:43.531Z,97.10
2018-07-14T00:55:11.437Z,97.10
2018-07-14T01:00:06.846Z,97.40
2018-07-14T01:02:34.788Z,97.30
2018-07-14T01:05:02.471Z,97.40
2018-07-14T01:07:30.435Z,97.50
2018-07-14T01:09:58.184Z,97.30
2018-07-14T01:12:25.914Z,97.40
2018-07-14T01:14:53.852Z,97.00
2018-07-14T01:17:21.656Z,96.60
2018-07-14T01:19:49.959Z,96.30
2018-07-14T01:22:17.752Z,96.30
2018-07-14T01:27:13.252Z,95.80
2018-07-14T01:29:40.958Z,95.90
2018-07-14T01:32:08.679Z,96.00
2018-07-14T01:34:36.372Z,96.10
2018-07-14T01:37:04.015Z,96.10
2018-07-14T01:39:31.651Z,96.00
2018-07-14T01:42:00.196Z,96.00
2018-07-14T01:44:27.907Z,95.90
2018-07-14T01:46:55.619Z,95.40
2018-07-14T01:49:23.740Z,95.30
2018-07-14T01:51:51.444Z,95.20
2018-07-14T01:54:19.164Z,95.50
2018-07-14T01:56:47.166Z,95.50
2018-07-14T01:59:14.779Z,95.80
2018-07-14T02:01:42.711Z,95.80
2018-07-14T02:04:10.513Z,95.50
2018-07-14T02:06:38.237Z,95.50
2018-07-14T02:09:06.181Z,95.80
2018-07-14T02:11:34.156Z,95.90
2018-07-14T02:14:01.835Z,96.60
2018-07-14T02:16:29.499Z,97.20
2018-07-14T02:18:57.291Z,97.00
2018-07-14T02:21:25.339Z,96.50
2018-07-14T02:23:52.971Z,97.00
2018-07-14T02:26:20.577Z,96.80
2018-07-14T02:28:48.538Z,97.00
2018-07-14T02:31:16.202Z,97.30
2018-07-14T02:33:43.894Z,97.30
2018-07-14T02:36:11.552Z,97.70
2018-07-14T02:38:39.172Z,97.90
2018-07-14T02:41:06.869Z,98.20
2018-07-14T02:43:34.669Z,98.20
2018-07-14T02:46:02.327Z,97.30
2018-07-14T02:48:30.081Z,97.20
2018-07-14T02:50:57.901Z,97.20
2018-07-14T02:55:53.281Z,97.70
2018-07-14T02:58:21.018Z,97.70
2018-07-14T03:00:48.635Z,97.90
2018-07-14T03:03:16.363Z,98.50
2018-07-14T03:05:43.999Z,98.90
2018-07-14T03:08:11.795Z,99.10
2018-07-14T03:10:39.535Z,99.00
2018-07-14T03:13:07.404Z,98.90
2018-07-14T03:15:35.484Z,98.70
2018-07-14T03:18:03.107Z,98.70
2018-07-14T03:20:30.829Z,98.80
2018-07-14T03:22:58.620Z,99.00
2018-07-14T03:25:26.377Z,98.70
2018-07-14T03:27:54.026Z,98.70
2018-07-14T03:30:21.760Z,98.30
2018-07-14T03:32:49.632Z,98.50
2018-07-14T03:35:17.308Z,98.80
2018-07-14T03:37:44.943Z,99.10
2018-07-14T03:40:13.337Z,99.40
2018-07-14T03:42:41.411Z,99.70
2018-07-14T03:45:09.045Z,99.80
2018-07-14T03:47:37.378Z,99.90
2018-07-14T03:50:05.254Z,99.90
2018-07-14T03:52:33.002Z,99.90
2018-07-14T03:55:00.664Z,99.90
2018-07-14T03:57:28.351Z,99.90
2018-07-14T03:59:56.173Z,99.90
2018-07-14T04:02:24.191Z,99.90
2018-07-14T04:04:51.854Z,99.90
2018-07-14T04:07:19.540Z,99.90
2018-07-14T04:09:47.711Z,99.90
2018-07-14T04:12:15.422Z,99.90
2018-07-14T04:14:43.334Z,99.90
2018-07-14T04:17:11.042Z,99.90
2018-07-14T04:19:38.703Z,99.90
2018-07-14T04:22:06.582Z,99.90
2018-07-14T04:24:34.252Z,99.90
2018-07-14T04:27:01.984Z,99.90
2018-07-14T04:29:30.756Z,99.90
2018-07-14T04:31:58.633Z,99.90
2018-07-14T04:34:26.423Z,99.90
2018-07-14T04:36:54.085Z,99.90
2018-07-14T04:39:21.768Z,99.90
2018-07-14T04:41:49.683Z,99.60
2018-07-14T04:44:17.323Z,97.60
2018-07-14T04:46:45.084Z,95.90
2018-07-14T04:51:40.770Z,91.60
2018-07-14T04:54:08.679Z,90.50
2018-07-14T04:56:36.598Z,90.10
2018-07-14T04:59:05.535Z,90.20
2018-07-14T05:01:33.524Z,90.90
2018-07-14T05:04:01.237Z,92.00
2018-07-14T05:06:28.993Z,93.00
2018-07-14T05:08:56.621Z,93.00
2018-07-14T05:11:28.212Z,92.70
2018-07-14T05:13:55.863Z,91.50
2018-07-14T05:16:23.560Z,89.60
2018-07-14T05:18:51.819Z,89.90
2018-07-14T05:21:19.613Z,87.30
2018-07-14T05:23:47.203Z,85.00
2018-07-14T05:26:15.025Z,78.50
2018-07-14T05:28:42.797Z,80.40
2018-07-14T05:31:10.614Z,77.20
2018-07-14T05:33:38.398Z,74.40
2018-07-14T05:36:06.186Z,71.90
2018-07-14T05:38:33.868Z,71.90
2018-07-14T05:41:01.481Z,70.20
2018-07-14T05:43:29.119Z,69.20
2018-07-14T05:45:56.976Z,69.20
2018-07-14T05:48:24.857Z,68.90
2018-07-14T05:50:52.517Z,68.40
2018-07-14T05:53:20.702Z,68.60
2018-07-14T05:55:48.373Z,67.80
2018-07-14T05:58:16.103Z,67.10
2018-07-14T06:00:43.848Z,65.40
2018-07-14T06:03:11.575Z,62.00
2018-07-14T06:05:39.284Z,61.30
2018-07-14T06:08:07.047Z,60.40
2018-07-14T06:10:34.807Z,59.20
2018-07-14T06:13:03.174Z,58.30
2018-07-14T06:15:30.786Z,57.20
2018-07-14T06:17:58.972Z,56.30
2018-07-14T06:20:26.711Z,54.60
2018-07-14T06:22:55.984Z,53.30
2018-07-14T06:25:23.887Z,51.50
2018-07-14T06:27:51.529Z,52.80
2018-07-14T06:30:19.576Z,51.30
2018-07-14T06:32:47.649Z,50.90
2018-07-14T06:35:15.326Z,47.70
2018-07-14T06:37:43.174Z,48.00
2018-07-14T06:40:11.390Z,47.60
2018-07-14T06:42:39.224Z,47.40
2018-07-14T06:45:09.025Z,46.30
2018-07-14T06:47:37.493Z,44.60
2018-07-14T06:50:05.503Z,45.10
2018-07-14T06:52:33.514Z,46.30
2018-07-14T06:55:01.410Z,44.50
2018-07-14T06:57:29.122Z,44.40
2018-07-14T06:59:57.132Z,43.30
2018-07-14T07:02:24.838Z,43.20
2018-07-14T07:04:53.864Z,40.80
2018-07-14T07:07:22.898Z,40.60
2018-07-14T07:09:50.670Z,40.10
2018-07-14T07:12:18.580Z,40.30
2018-07-14T07:14:47.949Z,40.40
2018-07-14T07:17:15.631Z,39.60
2018-07-14T07:19:43.588Z,39.60
2018-07-14T07:22:11.592Z,38.70
2018-07-14T07:24:40.816Z,36.80
2018-07-14T07:27:09.140Z,36.40
2018-07-14T07:29:37.489Z,37.50
2018-07-14T07:32:05.760Z,36.60
2018-07-14T07:34:33.442Z,37.30
2018-07-14T07:37:04.341Z,37.50
2018-07-14T07:39:32.074Z,38.00
2018-07-14T07:41:59.716Z,40.00
2018-07-14T07:45:05.588Z,40.50
2018-07-14T07:47:33.321Z,38.10
2018-07-14T07:53:14.529Z,37.60
2018-07-14T07:55:42.199Z,36.30
2018-07-14T07:58:09.883Z,37.60
2018-07-14T08:00:37.581Z,35.30
2018-07-14T08:03:05.665Z,33.80
2018-07-14T08:05:33.316Z,35.30
2018-07-14T08:08:00.984Z,35.90
2018-07-14T08:10:29.826Z,34.30
2018-07-14T08:12:57.868Z,36.00
2018-07-14T08:15:25.826Z,35.10
2018-07-14T08:17:55.071Z,35.80
2018-07-14T08:20:22.942Z,34.60
2018-07-14T08:22:50.805Z,33.90
2018-07-14T08:25:18.408Z,33.50
2018-07-14T08:27:46.081Z,33.40
2018-07-14T08:30:14.049Z,33.40
2018-07-14T08:32:41.823Z,34.20
2018-07-14T08:35:09.594Z,35.40
2018-07-14T08:37:37.340Z,34.30
2018-07-14T08:40:05.104Z,36.00
2018-07-14T08:42:32.992Z,36.40
2018-07-14T08:45:01.525Z,37.00
2018-07-14T08:47:29.214Z,35.50
2018-07-14T08:49:56.883Z,34.60
2018-07-14T08:52:24.716Z,32.40
2018-07-14T08:54:52.671Z,32.60
2018-07-14T08:57:21.502Z,32.90
2018-07-14T08:59:49.608Z,33.70
2018-07-14T09:02:17.263Z,32.40
2018-07-14T09:04:45.304Z,33.10
2018-07-14T09:09:40.683Z,32.00
2018-07-14T09:12:08.373Z,30.80
2018-07-14T09:14:37.494Z,31.40
2018-07-14T09:17:05.352Z,31.70
2018-07-14T09:19:33.163Z,31.10
2018-07-14T09:22:01.272Z,29.80
2018-07-14T09:24:28.983Z,29.30
2018-07-14T09:26:56.850Z,31.50
2018-07-14T09:29:24.658Z,30.30
2018-07-14T09:31:52.307Z,30.20
2018-07-14T09:34:19.964Z,31.50
2018-07-14T09:39:15.627Z,33.70
2018-07-14T09:41:43.791Z,32.20
2018-07-14T09:44:11.580Z,31.50
2018-07-14T09:46:48.637Z,32.90
2018-07-14T09:49:16.558Z,31.50
2018-07-14T09:51:44.165Z,29.80
2018-07-14T09:54:11.973Z,31.20
2018-07-14T09:56:39.760Z,31.70
2018-07-14T09:59:07.421Z,30.20
2018-07-14T10:01:35.295Z,28.70
2018-07-14T10:04:05.128Z,28.70
2018-07-14T10:06:32.756Z,29.10
2018-07-14T10:09:00.523Z,29.20
2018-07-14T10:11:28.157Z,29.40
2018-07-14T10:13:56.021Z,29.80
2018-07-14T10:16:23.838Z,31.30
2018-07-14T10:18:51.670Z,31.00
2018-07-14T10:21:19.445Z,30.10
2018-07-14T10:23:49.088Z,30.60
2018-07-14T10:26:17.890Z,30.60
2018-07-14T10:28:45.719Z,31.80
2018-07-14T10:31:13.598Z,30.50
2018-07-14T10:33:41.526Z,30.00
2018-07-14T10:36:09.247Z,29.80
2018-07-14T10:38:36.944Z,29.50
2018-07-14T10:41:04.656Z,28.40
2018-07-14T10:43:32.406Z,29.20
2018-07-14T10:46:00.076Z,29.80
2018-07-14T10:48:28.094Z,30.10
2018-07-14T10:50:55.924Z,29.20
2018-07-14T10:53:23.741Z,30.00
2018-07-14T10:55:51.640Z,28.50
2018-07-14T10:58:19.325Z,28.90
2018-07-14T11:00:47.265Z,29.40
2018-07-14T11:03:15.603Z,29.80
2018-07-14T11:05:44.043Z,29.50
2018-07-14T11:08:12.012Z,30.50
2018-07-14T11:10:40.042Z,29.00
2018-07-14T11:13:07.930Z,28.60
2018-07-14T11:15:35.689Z,30.30
2018-07-14T11:18:03.387Z,30.40
2018-07-14T11:20:31.124Z,31.20
2018-07-14T11:22:58.988Z,31.10
2018-07-14T11:25:26.748Z,30.80
2018-07-14T11:27:54.506Z,31.00
2018-07-14T11:30:22.262Z,33.10
2018-07-14T11:32:50.109Z,33.70
2018-07-14T11:35:19.624Z,36.40
2018-07-14T11:37:47.826Z,34.80
2018-07-14T11:40:15.591Z,35.00
2018-07-14T11:42:43.292Z,36.10
2018-07-14T11:45:14.592Z,35.90
2018-07-14T11:47:43.353Z,36.10
2018-07-14T11:50:11.384Z,35.90
2018-07-14T11:52:39.079Z,36.50
2018-07-14T11:55:06.792Z,35.30
2018-07-14T11:57:35.252Z,36.20
2018-07-14T12:00:03.158Z,37.60
2018-07-14T12:02:31.236Z,37.70
2018-07-14T12:04:59.163Z,37.00
2018-07-14T12:07:27.915Z,36.70
2018-07-14T12:12:24.102Z,35.40
2018-07-14T12:14:54.299Z,35.30
2018-07-14T12:17:26.191Z,35.50
2018-07-14T12:19:54.769Z,36.50
2018-07-14T12:22:23.414Z,35.70
2018-07-14T12:24:51.204Z,35.10
2018-07-14T12:27:19.224Z,36.40
2018-07-14T12:29:47.502Z,37.00
2018-07-14T12:32:15.131Z,37.90
2018-07-14T12:34:43.052Z,38.60
2018-07-14T12:37:10.704Z,38.10
2018-07-14T12:44:35.838Z,38.90
2018-07-14T12:47:03.683Z,36.00
2018-07-14T12:49:31.894Z,37.50
2018-07-14T12:51:59.578Z,37.40
2018-07-14T12:54:27.605Z,37.00
2018-07-14T12:59:23.968Z,38.40
2018-07-14T13:01:51.660Z,36.70
2018-07-14T13:04:19.301Z,36.20
2018-07-14T13:06:47.179Z,34.30
2018-07-14T13:09:15.208Z,36.40
2018-07-14T13:11:42.839Z,35.60
2018-07-14T13:14:11.198Z,35.70
2018-07-14T13:16:39.515Z,35.60
2018-07-14T13:19:07.189Z,35.70
2018-07-14T13:21:34.980Z,35.50
2018-07-14T13:24:02.667Z,35.60
2018-07-14T13:26:30.972Z,35.10
2018-07-14T13:31:26.970Z,35.50
2018-07-14T13:33:55.657Z,35.60
2018-07-14T13:36:23.342Z,35.20
2018-07-14T13:38:51.737Z,33.70
2018-07-14T13:41:18.660Z,34.80
2018-07-14T13:43:46.842Z,34.50
2018-07-14T13:46:15.495Z,34.50
2018-07-14T13:48:43.147Z,34.70
2018-07-14T13:51:11.356Z,34.50
2018-07-14T13:58:36.159Z,35.70
2018-07-14T14:01:04.732Z,36.50
2018-07-14T14:03:33.555Z,36.00
2018-07-14T14:06:02.488Z,38.30
2018-07-14T14:08:30.288Z,38.00
2018-07-14T14:10:57.972Z,38.50
2018-07-14T14:13:26.375Z,37.30
2018-07-14T14:15:54.297Z,36.50
2018-07-14T14:18:22.022Z,38.50
2018-07-14T14:20:49.685Z,37.80
2018-07-14T14:23:19.244Z,36.40
2018-07-14T14:25:46.901Z,36.70
2018-07-14T14:28:19.654Z,36.10
2018-07-14T14:30:47.376Z,35.80
2018-07-14T14:33:15.628Z,36.30
2018-07-14T14:35:44.105Z,34.90
2018-07-14T14:39:41.379Z,35.00
2018-07-14T14:42:09.228Z,35.50
2018-07-14T14:44:38.036Z,36.50
2018-07-14T14:47:06.587Z,36.50
2018-07-14T14:49:36.249Z,35.60
2018-07-14T14:52:05.973Z,36.60
2018-07-14T14:54:34.178Z,37.50
2018-07-14T14:57:07.166Z,38.00
2018-07-14T14:59:35.595Z,37.10
2018-07-14T15:02:03.921Z,37.30
2018-07-14T15:04:33.172Z,35.80
2018-07-14T15:07:01.022Z,36.90
2018-07-14T15:09:29.120Z,36.40
2018-07-14T15:11:56.782Z,36.70
2018-07-14T15:17:23.747Z,38.40
2018-07-14T15:19:51.741Z,39.80
2018-07-14T15:22:19.452Z,38.90
2018-07-14T15:24:47.280Z,39.00
2018-07-14T15:27:15.574Z,39.20
2018-07-14T15:29:43.954Z,38.70
2018-07-14T15:34:40.609Z,39.20
2018-07-14T15:37:09.830Z,39.30
2018-07-14T15:39:38.575Z,39.80
2018-07-14T15:42:06.898Z,39.30
2018-07-14T15:44:35.243Z,39.00
2018-07-14T15:47:04.081Z,38.90
2018-07-14T15:49:31.772Z,38.20
2018-07-14T15:51:59.523Z,38.80
2018-07-14T15:54:27.213Z,39.70
2018-07-14T15:56:55.179Z,39.70
2018-07-14T15:59:22.950Z,39.30
2018-07-14T16:01:50.628Z,39.70
2018-07-14T16:04:18.374Z,40.20
2018-07-14T16:06:47.184Z,41.20
2018-07-14T16:09:15.394Z,41.40
2018-07-14T16:11:43.223Z,41.50
2018-07-14T16:14:10.950Z,41.40
2018-07-14T16:16:38.644Z,41.50
2018-07-14T16:19:06.388Z,42.60
2018-07-14T16:21:34.351Z,43.20
2018-07-14T16:24:04.089Z,42.10
2018-07-14T16:26:32.443Z,41.30
2018-07-14T16:29:00.294Z,41.70
2018-07-14T16:31:28.068Z,41.80
2018-07-14T16:33:55.930Z,42.10
2018-07-14T16:36:24.820Z,42.00
2018-07-14T16:38:52.553Z,42.40
2018-07-14T16:41:21.200Z,42.70
2018-07-14T16:43:49.439Z,42.20
2018-07-14T16:46:17.210Z,41.10
2018-07-14T16:48:45.009Z,42.80
2018-07-14T16:51:12.833Z,41.20
2018-07-14T16:53:41.424Z,42.10
2018-07-14T16:56:10.126Z,42.30
2018-07-14T16:58:38.721Z,42.00
2018-07-14T17:01:07.153Z,42.50
2018-07-14T17:03:35.613Z,42.10
2018-07-14T17:06:03.954Z,42.80
2018-07-14T17:08:31.724Z,41.40
2018-07-14T17:11:00.261Z,40.70
2018-07-14T17:13:28.800Z,41.00
2018-07-14T17:15:57.089Z,40.90
2018-07-14T17:18:24.768Z,41.30
2018-07-14T17:20:52.586Z,41.50
2018-07-14T17:23:20.148Z,43.30
2018-07-14T17:25:47.888Z,43.20
2018-07-14T17:28:16.477Z,43.70
2018-07-14T17:30:45.868Z,43.70
2018-07-14T17:33:15.907Z,43.80
2018-07-14T17:35:43.943Z,44.40
2018-07-14T17:38:11.702Z,44.10
2018-07-14T17:40:39.676Z,43.50
2018-07-14T17:43:09.020Z,43.70
2018-07-14T17:45:37.127Z,43.80
2018-07-14T17:48:05.775Z,44.00
2018-07-14T17:53:02.166Z,44.60
2018-07-14T17:55:29.934Z,44.40
2018-07-14T17:57:57.587Z,44.10
2018-07-14T18:00:26.029Z,44.10
2018-07-14T18:02:55.210Z,44.60
2018-07-14T18:05:55.548Z,45.00
2018-07-14T18:08:23.477Z,45.60
2018-07-14T18:10:51.961Z,46.70
2018-07-14T18:13:20.024Z,47.30
2018-07-14T18:15:47.784Z,47.20
2018-07-14T18:18:15.613Z,47.20
2018-07-14T18:20:43.557Z,47.40
2018-07-14T18:23:11.506Z,48.10
2018-07-14T18:25:39.422Z,48.00
2018-07-14T18:28:07.705Z,47.90
2018-07-14T18:30:35.360Z,48.20
2018-07-14T18:33:03.078Z,48.60
2018-07-14T18:35:30.836Z,48.60
2018-07-14T18:37:58.562Z,49.10
2018-07-14T18:40:26.300Z,49.50
2018-07-14T18:42:54.492Z,49.80
2018-07-14T18:45:22.227Z,49.90
2018-07-14T18:47:50.105Z,50.20
2018-07-14T18:50:17.811Z,50.20
2018-07-14T18:52:45.706Z,50.40
2018-07-14T18:55:13.748Z,51.10
2018-07-14T19:00:09.124Z,51.80
2018-07-14T19:02:37.117Z,52.30
2018-07-14T19:05:04.982Z,52.50
2018-07-14T19:07:33.109Z,53.20
2018-07-14T19:10:01.036Z,53.80
2018-07-14T19:12:28.843Z,53.50
2018-07-14T19:14:56.934Z,54.00
2018-07-14T19:17:24.732Z,54.50
2018-07-14T19:19:52.724Z,55.40
2018-07-14T19:22:20.333Z,56.30
2018-07-14T19:24:48.020Z,56.40
2018-07-14T19:29:43.687Z,59.60
2018-07-14T19:32:11.471Z,63.40
2018-07-14T19:34:39.404Z,63.60
2018-07-14T19:37:07.208Z,64.00
2018-07-14T19:39:35.159Z,64.30
2018-07-14T19:42:03.033Z,64.20
2018-07-14T19:44:30.851Z,64.40
2018-07-14T19:46:58.872Z,65.40
2018-07-14T19:49:27.185Z,69.20
2018-07-14T19:51:55.127Z,72.30
2018-07-14T19:54:23.282Z,76.20
2018-07-14T19:56:51.064Z,76.20
2018-07-14T19:59:19.422Z,78.40
2018-07-14T20:01:47.200Z,77.80
2018-07-14T20:04:15.019Z,78.20
2018-07-14T20:06:43.149Z,78.60
2018-07-14T20:09:10.942Z,79.40
2018-07-14T20:11:38.634Z,79.70
2018-07-14T20:14:06.521Z,80.20
2018-07-14T20:16:34.905Z,79.70
2018-07-14T20:19:02.919Z,82.20
2018-07-14T20:21:30.620Z,82.60
2018-07-14T20:23:58.521Z,82.60
2018-07-14T20:26:26.277Z,83.10
2018-07-14T20:28:53.975Z,82.90
2018-07-14T20:31:21.753Z,85.00
2018-07-14T20:33:49.476Z,85.70
2018-07-14T20:36:17.920Z,86.00
2018-07-14T20:38:46.841Z,86.70
2018-07-14T20:41:15.982Z,87.50
2018-07-14T20:43:43.811Z,87.50
2018-07-14T20:46:11.523Z,87.60
2018-07-14T20:48:39.157Z,86.90
2018-07-14T20:51:07.009Z,86.90
2018-07-14T20:53:34.648Z,86.90
2018-07-14T20:56:02.455Z,86.80
2018-07-14T20:58:31.208Z,87.10
2018-07-14T21:00:58.896Z,87.60
2018-07-14T21:03:26.792Z,88.30
2018-07-14T21:05:55.157Z,89.20
2018-07-14T21:08:23.561Z,89.40
2018-07-14T21:10:51.285Z,90.70
2018-07-14T21:13:19.208Z,90.30
2018-07-14T21:15:46.997Z,90.80
2018-07-14T21:18:14.660Z,91.50
2018-07-14T21:20:42.703Z,91.90
2018-07-14T21:23:10.432Z,91.70
2018-07-14T21:25:38.805Z,92.80
2018-07-14T21:28:06.556Z,92.50
2018-07-14T21:33:02.088Z,93.40
2018-07-14T21:35:30.142Z,93.40
2018-07-14T21:37:57.966Z,93.30
2018-07-14T21:40:25.793Z,93.20
2018-07-14T21:42:53.668Z,93.40
2018-07-14T21:45:21.437Z,93.70
2018-07-14T21:47:49.251Z,93.80
2018-07-14T21:50:17.340Z,93.90
2018-07-14T21:52:44.979Z,93.60
2018-07-14T21:55:12.889Z,94.10
2018-07-14T21:57:40.648Z,93.80
2018-07-14T22:00:09.900Z,93.70
2018-07-14T22:02:38.739Z,94.30
2018-07-14T22:05:06.473Z,95.00
2018-07-14T22:07:34.124Z,95.00
2018-07-14T22:10:01.878Z,95.20
2018-07-14T22:12:29.784Z,95.20
2018-07-14T22:14:57.603Z,95.10
2018-07-14T22:17:25.347Z,95.20
2018-07-14T22:19:53.060Z,95.20
2018-07-14T22:22:20.995Z,96.00
2018-07-14T22:24:48.773Z,96.00
2018-07-14T22:27:17.074Z,96.10
2018-07-14T22:29:44.781Z,96.20
2018-07-14T22:34:40.597Z,96.50
2018-07-14T22:37:08.310Z,97.00
2018-07-14T22:39:36.155Z,96.60
2018-07-14T22:42:04.902Z,97.10
2018-07-14T22:44:32.567Z,97.40
2018-07-14T22:47:00.364Z,97.30
2018-07-14T22:49:28.141Z,97.70
2018-07-14T22:51:55.967Z,98.20
2018-07-14T22:54:23.851Z,97.90
2018-07-14T22:56:51.633Z,97.60
2018-07-14T23:01:47.865Z,97.20
2018-07-14T23:04:17.103Z,96.60
2018-07-14T23:06:44.822Z,96.00
2018-07-14T23:11:40.542Z,96.70
2018-07-14T23:14:08.251Z,96.70
2018-07-14T23:16:35.950Z,97.40
2018-07-14T23:19:04.031Z,97.50
2018-07-14T23:21:31.888Z,97.50
2018-07-14T23:26:27.288Z,97.40
2018-07-14T23:28:55.043Z,97.30
2018-07-14T23:31:22.804Z,97.20
2018-07-14T23:33:51.030Z,97.50
2018-07-14T23:36:18.685Z,97.90
2018-07-14T23:38:46.509Z,98.50
2018-07-14T23:41:14.220Z,99.20
2018-07-14T23:43:42.040Z,99.00
2018-07-14T23:48:38.118Z,99.00
2018-07-14T23:51:06.763Z,99.50
2018-07-14T23:53:35.225Z,99.10
2018-07-14T23:56:02.946Z,98.90
2018-07-14T23:58:30.893Z,98.90
